Data for 11/04/2007

Time Sea-Level Adjusted Pressure Absolute Pressure Temperature Relative Humidity Dew Point   
(mb) (inHg) (mb) (inHg) (C) (F) (%) (C) (F)
00:05 1022 30.18 851 25.13 11.1 52 34 -4.3 24.2
00:10 1022 30.18 851 25.13 11 51.7 34 -4.4 24
00:15 1022 30.18 851 25.13 10.8 51.4 33 -4.7 23.5
00:20 1022 30.18 851 25.13 11.1 52 33 -4.4 24
00:25 1022 30.18 851 25.13 10.9 51.7 34 -4.4 24.1
00:30 1022 30.18 851 25.13 10.6 51.1 35 -4 24.8
00:35 1022 30.18 851 25.13 10 49.9 37 -4 24.8
00:40 1021 30.15 851 25.13 9.8 49.6 37 -4.2 24.4
00:45 1021 30.15 851 25.13 9.6 49.3 38 -4.1 24.7
00:50 1021 30.15 850 25.1 9.7 49.4 38 -4.1 24.7
00:55 1021 30.15 850 25.1 9.6 49.3 38 -4.1 24.6
01:00 1021 30.15 850 25.1 9.7 49.5 37 -4.4 24.1
01:05 1021 30.15 850 25.1 9.8 49.7 35 -4.8 23.4
01:10 1021 30.15 850 25.1 10.2 50.4 36 -4.3 24.2
01:15 1021 30.15 850 25.1 9.8 49.7 37 -4.1 24.7
01:20 1021 30.15 850 25.1 9.6 49.2 38 -3.9 25
01:25 1021 30.15 850 25.1 9.4 48.9 39 -3.9 24.9
01:30 1021 30.15 850 25.1 9.4 48.8 39 -3.9 25
01:35 1021 30.15 850 25.1 9.2 48.6 40 -3.7 25.3
01:40 1021 30.15 850 25.1 9.3 48.8 38 -4.3 24.3
01:45 1021 30.15 850 25.1 10 50.1 35 -4.9 23.3
01:50 1020 30.12 850 25.1 10.6 51 33 -4.9 23.2
01:55 1020 30.12 850 25.1 10.9 51.6 33 -4.8 23.4
01:00 1020 30.12 850 25.1 11.1 51.9 32 -4.9 23.2
01:05 1020 30.12 849 25.07 11.1 51.9 32 -4.8 23.4
01:10 1020 30.12 849 25.07 11.2 52.2 32 -4.9 23.1
01:15 1020 30.12 850 25.1 11.4 52.5 31 -5.1 22.9
01:20 1020 30.12 849 25.07 11.7 53 30 -5.3 22.4
01:25 1020 30.12 849 25.07 12 53.5 30 -5.2 22.6
01:30 1020 30.12 849 25.07 12.1 53.7 29 -5.5 22
01:35 1020 30.12 849 25.07 12.2 54 29 -5.3 22.4
01:40 1020 30.12 849 25.07 12.1 53.7 29 -5.5 22.2
01:45 1020 30.12 849 25.07 12 53.7 29 -5.4 22.2
01:50 1020 30.12 849 25.07 12 53.6 29 -5.6 21.9
01:55 1020 30.12 849 25.07 12 53.7 28 -5.7 21.7
02:00 1020 30.12 849 25.07 12 53.5 28 -6 21.2
02:05 1020 30.12 849 25.07 12.1 53.8 28 -5.8 21.6
02:10 1020 30.12 849 25.07 12 53.5 28 -6.1 21.1
02:15 1020 30.12 849 25.07 12.2 54 27 -6.1 20.9
02:20 1020 30.12 849 25.07 12.4 54.3 26 -6.4 20.4
02:25 1020 30.12 849 25.07 12.6 54.6 27 -5.9 21.3
02:30 1020 30.12 849 25.07 12.2 54 28 -5.9 21.5
02:35 1020 30.12 849 25.07 12.1 53.7 28 -5.7 21.7
02:40 1020 30.12 849 25.07 11.9 53.5 28 -5.9 21.4
02:45 1020 30.12 849 25.07 11.9 53.4 28 -5.8 21.6
02:50 1020 30.12 849 25.07 11.7 53.1 28 -6 21.2
02:55 1020 30.12 849 25.07 11.7 53.1 28 -6 21.2
03:00 1020 30.12 849 25.07 11.6 52.9 29 -5.9 21.3
03:05 1020 30.12 849 25.07 11.7 53 28 -6.1 21.1
03:10 1020 30.12 849 25.07 11.5 52.7 29 -5.8 21.6
03:15 1020 30.12 849 25.07 11.3 52.3 30 -5.9 21.5
03:20 1019 30.09 849 25.07 11.1 51.9 30 -6 21.2
03:25 1019 30.09 849 25.07 11 51.9 29 -6.1 21
03:30 1019 30.09 849 25.07 10.9 51.7 29 -6.2 20.8
03:35 1019 30.09 849 25.07 11.1 52 29 -6.4 20.6
03:40 1020 30.12 849 25.07 11.2 52.1 29 -6.1 21
03:45 1020 30.12 849 25.07 10.9 51.7 31 -5.4 22.3
03:50 1020 30.12 849 25.07 10.3 50.5 32 -5.5 22.1
03:55 1020 30.12 849 25.07 9.9 49.9 32 -5.8 21.6
04:00 1020 30.12 849 25.07 9.8 49.7 33 -5.7 21.8
04:05 1020 30.12 849 25.07 9.7 49.5 33 -5.9 21.4
04:10 1020 30.12 849 25.07 9.9 49.7 31 -6.3 20.6
04:15 1020 30.12 849 25.07 10.2 50.3 32 -5.9 21.4
04:20 1020 30.12 849 25.07 10.2 50.3 32 -5.9 21.3
04:25 1020 30.12 849 25.07 10.1 50.2 32 -5.8 21.6
04:30 1019 30.09 849 25.07 9.9 49.8 33 -5.8 21.5
04:35 1019 30.09 849 25.07 9.7 49.5 33 -5.9 21.4
04:40 1019 30.09 849 25.07 9.5 49.2 32 -6.1 21
04:45 1020 30.12 849 25.07 9.5 49.2 32 -6.5 20.3
04:50 1020 30.12 849 25.07 9.7 49.5 32 -6.3 20.7
04:55 1020 30.12 849 25.07 9.7 49.5 31 -6.5 20.2
05:00 1020 30.12 849 25.07 10 49.9 31 -6.6 20.2
05:05 1020 30.12 849 25.07 9.9 49.9 31 -6.3 20.6
05:10 1020 30.12 849 25.07 9.8 49.6 31 -6.4 20.5
05:15 1020 30.12 849 25.07 9.7 49.4 31 -6.5 20.3
05:20 1020 30.12 849 25.07 9.5 49.2 32 -6.4 20.5
05:25 1020 30.12 849 25.07 9.3 48.7 32 -6.4 20.5
05:30 1019 30.09 849 25.07 9 48.2 33 -6.4 20.4
05:35 1019 30.09 849 25.07 8.8 47.9 32 -7 19.3
05:40 1019 30.09 849 25.07 9.2 48.6 29 -7.7 18.1
05:45 1019 30.09 849 25.07 9.7 49.4 29 -7.7 18.2
05:50 1019 30.09 849 25.07 9.9 49.8 28 -7.6 18.3
05:55 1019 30.09 848 25.04 9.8 49.6 29 -7.5 18.5
06:00 1019 30.09 848 25.04 10 49.9 28 -7.8 17.9
06:05 1019 30.09 848 25.04 10.3 50.5 27 -7.7 18.1
06:10 1019 30.09 848 25.04 10.4 50.6 27 -7.7 18.2
06:15 1019 30.09 848 25.04 10 50 28 -7.5 18.5
06:20 1019 30.09 848 25.04 9.6 49.4 29 -7.6 18.3
06:25 1019 30.09 848 25.04 9.5 49.1 29 -7.8 18
06:30 1019 30.09 848 25.04 9.5 49.1 28 -7.9 17.8
06:35 1019 30.09 848 25.04 9.8 49.6 27 -8.3 17
06:40 1019 30.09 848 25.04 10.1 50.2 27 -7.9 17.7
06:45 1019 30.09 848 25.04 9.9 49.8 28 -7.6 18.3
06:50 1019 30.09 848 25.04 9.5 49 29 -7.7 18.1
06:55 1019 30.09 848 25.04 9.4 49 29 -7.8 18
07:00 1019 30.09 848 25.04 9.4 48.8 29 -7.8 18
07:05 1019 30.09 848 25.04 9.3 48.8 29 -8 17.7
07:10 1019 30.09 848 25.04 9.1 48.4 29 -7.8 17.9
07:15 1019 30.09 848 25.04 8.9 48 30 -7.8 18
07:20 1019 30.09 848 25.04 8.8 47.9 30 -7.8 18
07:25 1019 30.09 848 25.04 8.7 47.7 30 -8 17.6
07:30 1019 30.09 848 25.04 9 48.2 29 -8.3 17.1
07:35 1019 30.09 848 25.04 9.5 49.2 27 -8.4 16.9
07:40 1019 30.09 848 25.04 9.9 49.7 27 -8.3 17
07:45 1019 30.09 848 25.04 10.1 50.2 25 -9 15.7
07:50 1019 30.09 848 25.04 10.5 51 25 -8.6 16.5
07:55 1019 30.09 848 25.04 10.5 51 25 -8.6 16.4
08:00 1019 30.09 848 25.04 10.5 50.8 25 -8.6 16.6
08:05 1019 30.09 848 25.04 10.5 51 25 -8.6 16.4
08:10 1019 30.09 848 25.04 10.5 50.9 25 -8.6 16.5
08:15 1019 30.09 848 25.04 10.4 50.7 27 -8 17.5
08:20 1019 30.09 848 25.04 10.3 50.5 26 -8.6 16.6
08:25 1019 30.09 848 25.04 10.8 51.4 24 -8.9 15.9
08:30 1019 30.09 848 25.04 11.4 52.4 23 -8.9 16
08:35 1019 30.09 848 25.04 12 53.6 21 -9.6 14.7
08:40 1019 30.09 848 25.04 12.6 54.6 20 -10 13.9
08:45 1019 30.09 848 25.04 12.9 55.2 20 -9.6 14.7
08:50 1019 30.09 848 25.04 13 55.3 20 -9.5 14.9
08:55 1019 30.09 848 25.04 13.1 55.5 20 -9.4 15.2
09:00 1019 30.09 848 25.04 12.8 55 19 -10.4 13.2
09:05 1019 30.09 848 25.04 13.1 55.5 19 -10.2 13.7
09:10 1019 30.09 848 25.04 13.2 55.8 18 -10.4 13.3
09:15 1019 30.09 848 25.04 13.4 56.1 18 -10.5 13
09:20 1019 30.09 848 25.04 13.7 56.6 17 -11 12.2
09:25 1019 30.09 848 25.04 14 57.2 15 -12.2 10.1
09:30 1019 30.09 848 25.04 14.5 58 15 -12 10.4
09:35 1019 30.09 848 25.04 14.6 58.3 15 -11.3 11.6
09:40 1019 30.09 848 25.04 14.7 58.5 15 -11.4 11.5
09:45 1019 30.09 848 25.04 14.9 58.9 14 -12 10.5
09:50 1019 30.09 848 25.04 15 59 15 -11.5 11.3
09:55 1019 30.09 848 25.04 15.1 59.1 15 -11.7 10.9
10:00 1019 30.09 848 25.04 15.2 59.4 15 -11.2 11.8
10:05 1019 30.09 848 25.04 15.2 59.4 14 -11.8 10.8
10:10 1019 30.09 848 25.04 15.3 59.5 15 -11.5 11.4
10:15 1019 30.09 848 25.04 15.3 59.6 15 -11.4 11.5
10:20 1019 30.09 848 25.04 15.5 60 14 -11.6 11.1
10:25 1019 30.09 848 25.04 15.7 60.2 14 -11.8 10.8
10:30 1019 30.09 848 25.04 15.8 60.4 14 -11.4 11.5
10:35 1019 30.09 848 25.04 16 60.7 14 -11.6 11.1
10:40 1019 30.09 848 25.04 15.9 60.7 14 -11.6 11.1
10:45 1019 30.09 848 25.04 16 60.8 14 -11.4 11.4
10:50 1019 30.09 848 25.04 16.4 61.5 14 -11.3 11.7
10:55 1019 30.09 848 25.04 16.6 61.9 14 -11.1 12
11:00 1019 30.09 848 25.04 17 62.6 13 -11.1 11.9
11:05 1019 30.09 848 25.04 17.4 63.3 13 -11.6 11.1
11:10 1019 30.09 848 25.04 17 62.6 13 -11.7 10.9
11:15 1019 30.09 848 25.04 17 62.5 13 -11.4 11.6
11:20 1019 30.09 848 25.04 17.3 63.2 13 -11 12.3
11:25 1018 30.06 848 25.04 17.3 63.2 13 -11.5 11.4
11:30 1018 30.06 848 25.04 17.1 62.8 13 -11.6 11
11:35 1018 30.06 847 25.01 17.2 62.9 13 -11.6 11.1
11:40 1018 30.06 847 25.01 17.4 63.4 13 -11.5 11.2
11:45 1018 30.06 847 25.01 17.6 63.7 13 -10.9 12.3
11:50 1018 30.06 847 25.01 17.6 63.6 13 -11.2 11.8
11:55 1018 30.06 847 25.01 17.6 63.7 13 -11.4 11.4
12:00 1018 30.06 847 25.01 17.7 63.8 12 -12 10.5
12:05 1018 30.06 847 25.01 17.6 63.6 12 -11.7 10.9
12:10 1018 30.06 847 25.01 17.5 63.4 12 -12 10.4
12:15 1018 30.06 847 25.01 17.6 63.7 12 -11.7 10.9
12:20 1018 30.06 847 25.01 17.5 63.5 13 -11.5 11.4
12:25 1018 30.06 847 25.01 17.3 63.1 13 -11.8 10.8
12:30 1018 30.06 847 25.01 17.2 63 13 -11.5 11.2
12:35 1018 30.06 847 25.01 17.2 63 13 -11.3 11.7
12:40 1018 30.06 847 25.01 17.2 63 13 -11.8 10.8
12:45 1018 30.06 847 25.01 17.3 63.1 12 -12.2 10
12:50 1018 30.06 847 25.01 17.4 63.3 12 -11.9 10.6
12:55 1018 30.06 847 25.01 17.4 63.4 13 -11.4 11.5
13:00 1018 30.06 847 25.01 18 64.4 12 -12 10.4
13:05 1018 30.06 847 25.01 18.1 64.6 12 -11.4 11.4
13:10 1018 30.06 847 25.01 18.1 64.6 13 -10.9 12.3
13:15 1018 30.06 847 25.01 17.5 63.6 13 -11.2 11.9
13:20 1018 30.06 847 25.01 17.1 62.7 13 -11.8 10.8
13:25 1018 30.06 847 25.01 16.9 62.4 13 -11.3 11.6
13:30 1017 30.03 847 25.01 16.8 62.2 14 -11.1 12
13:35 1017 30.03 847 25.01 16.6 61.9 14 -11 12.3
13:40 1017 30.03 847 25.01 16.6 61.8 13 -12.1 10.3
13:45 1017 30.03 847 25.01 16.6 61.9 13 -11.5 11.3
13:50 1017 30.03 846 24.98 16.6 61.9 14 -10.8 12.6
13:55 1017 30.03 846 24.98 16.6 61.8 14 -11.4 11.6
14:00 1017 30.03 846 24.98 16.8 62.3 13 -12 10.4
14:05 1017 30.03 846 24.98 16.7 62.1 13 -11.8 10.7
14:10 1017 30.03 846 24.98 16.7 62 13 -11.6 11.1
14:15 1017 30.03 846 24.98 16.7 62 13 -11.6 11.2
14:20 1017 30.03 846 24.98 16.8 62.2 13 -11.4 11.4
14:25 1017 30.03 846 24.98 16.7 62.1 13 -11.5 11.3
14:30 1017 30.03 846 24.98 16.8 62.2 14 -11.2 11.8
14:35 1017 30.03 846 24.98 17.2 62.9 14 -11 12.3
14:40 1017 30.03 846 24.98 17.4 63.4 13 -11.2 11.8
14:45 1017 30.03 846 24.98 17.5 63.4 13 -11 12.2
14:50 1017 30.03 846 24.98 17.3 63.1 14 -10.4 13.2
14:55 1017 30.03 846 24.98 17.2 63 14 -10.5 13
15:00 1017 30.03 846 24.98 17.3 63.2 14 -10.7 12.8
15:05 1017 30.03 846 24.98 17.4 63.4 14 -10.5 13
15:10 1017 30.03 846 24.98 17.3 63.2 14 -10.3 13.4
15:15 1017 30.03 846 24.98 17.1 62.8 15 -9.7 14.6
15:20 1017 30.03 846 24.98 16.7 62 15 -10 14
15:25 1017 30.03 846 24.98 16.6 61.9 15 -10.1 13.9
15:30 1017 30.03 846 24.98 16.5 61.7 15 -10.1 13.8
15:35 1017 30.03 846 24.98 16.3 61.4 15 -10.6 12.9
15:40 1017 30.03 846 24.98 16.3 61.4 15 -10.1 13.7
15:45 1017 30.03 846 24.98 16.4 61.6 14 -10.9 12.4
15:50 1017 30.03 846 24.98 16.6 61.9 15 -10.1 13.9
15:55 1017 30.03 846 24.98 16.4 61.5 16 -9.5 14.8
16:00 1017 30.03 846 24.98 16 60.8 17 -8.9 15.9
16:05 1017 30.03 846 24.98 15.8 60.4 17 -9.3 15.3
16:10 1017 30.03 846 24.98 16 60.9 16 -9.7 14.5
16:15 1017 30.03 846 24.98 16.4 61.5 15 -9.9 14.2
16:20 1017 30.03 846 24.98 16.5 61.7 15 -9.8 14.4
16:25 1017 30.03 846 24.98 16.4 61.6 17 -8.9 16
16:30 1017 30.03 847 25.01 15.9 60.7 18 -8.6 16.5
16:35 1017 30.03 847 25.01 15.6 60 18 -8.3 17.1
16:40 1017 30.03 847 25.01 15.3 59.5 19 -8.5 16.8
16:45 1017 30.03 847 25.01 15.2 59.4 18 -8.6 16.5
16:50 1017 30.03 847 25.01 15.4 59.6 19 -8.3 17.1
16:55 1017 30.03 847 25.01 15.2 59.4 19 -8 17.5
17:00 1017 30.03 847 25.01 14.9 58.9 21 -7.4 18.8
17:05 1017 30.03 847 25.01 14.4 57.9 21 -7.5 18.5
17:10 1017 30.03 847 25.01 14 57.2 22 -7.5 18.5
17:15 1017 30.03 847 25.01 13.7 56.7 22 -7.7 18.1
17:20 1017 30.03 847 25.01 13.6 56.4 22 -7.8 17.9
17:25 1018 30.06 847 25.01 13.4 56.1 22 -7.7 18.1
17:30 1017 30.03 847 25.01 13.2 55.7 22 -8.1 17.5
17:35 1017 30.03 847 25.01 13.2 55.8 22 -8.2 17.2
17:40 1018 30.06 847 25.01 13.2 55.7 22 -7.9 17.8
17:45 1018 30.06 847 25.01 12.9 55.2 23 -7.7 18.2
17:50 1018 30.06 847 25.01 12.7 54.9 23 -7.8 18
17:55 1018 30.06 847 25.01 12.6 54.6 24 -7.7 18.2
18:00 1018 30.06 847 25.01 12.4 54.4 24 -7.4 18.7
18:05 1018 30.06 847 25.01 12.2 53.9 24 -7.6 18.2
18:10 1018 30.06 847 25.01 12 53.5 25 -7.5 18.5
18:15 1018 30.06 848 25.04 11.8 53.3 24 -7.9 17.8
18:20 1018 30.06 848 25.04 11.7 53.1 25 -7.7 18.2
18:25 1018 30.06 848 25.04 11.6 52.9 25 -7.7 18.2
18:30 1019 30.09 848 25.04 11.6 52.8 26 -7.3 18.8
18:35 1019 30.09 848 25.04 11.5 52.6 27 -7 19.3
18:40 1019 30.09 848 25.04 11.3 52.4 27 -6.8 19.8
18:45 1019 30.09 848 25.04 11.1 52 28 -6.6 20.1
18:50 1019 30.09 848 25.04 11 51.7 29 -6.3 20.6
18:55 1019 30.09 848 25.04 10.8 51.5 30 -6.2 20.9
19:00 1019 30.09 848 25.04 10.7 51.2 30 -6.1 21
19:05 1019 30.09 848 25.04 10.6 51 31 -5.9 21.4
19:10 1019 30.09 848 25.04 10.4 50.8 32 -5.7 21.7
19:15 1019 30.09 848 25.04 10.3 50.5 32 -5.6 21.9
19:20 1019 30.09 848 25.04 10.2 50.4 33 -5.4 22.3
19:25 1019 30.09 848 25.04 10 50 34 -5.2 22.6
19:30 1019 30.09 849 25.07 9.9 49.8 34 -5.2 22.6
19:35 1019 30.09 849 25.07 9.8 49.6 35 -5.1 22.8
19:40 1020 30.12 849 25.07 9.7 49.4 35 -4.9 23.1
19:45 1020 30.12 849 25.07 8.9 48 38 -4.8 23.4
19:50 1020 30.12 849 25.07 8.6 47.6 38 -5 23.1
19:55 1020 30.12 849 25.07 8.9 47.9 38 -4.8 23.4
20:00 1020 30.12 849 25.07 9.1 48.4 39 -4.3 24.3
20:05 1020 30.12 849 25.07 9.1 48.3 40 -3.8 25.1
20:10 1020 30.12 849 25.07 9 48.1 41 -3.6 25.6
20:15 1020 30.12 849 25.07 8.9 48 42 -3.4 25.9
20:20 1020 30.12 849 25.07 8.8 47.8 43 -3.1 26.4
20:25 1020 30.12 850 25.1 7.7 45.8 47 -2.9 26.8
20:30 1021 30.15 850 25.1 7.1 44.8 45 -3.9 25
20:35 1021 30.15 850 25.1 8 46.4 44 -3.5 25.7
20:40 1021 30.15 850 25.1 8.3 47 43 -3.4 25.9
20:45 1021 30.15 850 25.1 8.7 47.7 43 -3.2 26.3
20:50 1021 30.15 850 25.1 8.9 47.9 43 -3.1 26.5
20:55 1021 30.15 850 25.1 8.8 47.8 44 -2.7 27.1
21:00 1021 30.15 850 25.1 8.8 47.8 44 -2.7 27.2
21:05 1021 30.15 850 25.1 8.8 47.8 45 -2.6 27.3
21:10 1021 30.15 850 25.1 8.7 47.7 45 -2.5 27.4
21:15 1021 30.15 850 25.1 8.7 47.7 45 -2.4 27.7
21:20 1021 30.15 850 25.1 8.6 47.5 46 -2.3 27.9
21:25 1021 30.15 851 25.13 8.5 47.3 46 -2.3 27.9
21:30 1022 30.18 851 25.13 8.4 47.1 47 -2.2 28.1
21:35 1022 30.18 851 25.13 8.3 46.9 48 -2.2 28.1
21:40 1022 30.18 851 25.13 8.2 46.7 48 -2.2 28
21:45 1022 30.18 851 25.13 7.7 45.8 50 -2 28.4
21:50 1022 30.18 851 25.13 7.1 44.8 52 -2.2 28.1
21:55 1022 30.18 851 25.13 6.9 44.4 52 -2.2 28.1
22:00 1022 30.18 851 25.13 6.8 44.2 53 -2.2 28
22:05 1022 30.18 851 25.13 6.5 43.7 54 -2.2 28.1
22:10 1022 30.18 851 25.13 5.6 42.1 55 -2.8 27
22:15 1022 30.18 852 25.16 5 40.9 56 -3.1 26.4
22:20 1023 30.21 852 25.16 4.4 40 57 -3.4 25.8
22:25 1023 30.21 852 25.16 3.8 38.9 59 -3.6 25.6
22:30 1023 30.21 852 25.16 3.4 38.2 60 -3.7 25.3
22:35 1023 30.21 852 25.16 3.1 37.6 60 -3.8 25.2
22:40 1023 30.21 852 25.16 2.8 37.1 61 -3.9 24.9
22:45 1023 30.21 852 25.16 2.6 36.7 62 -3.9 24.9
22:50 1023 30.21 852 25.16 2.5 36.4 63 -4 24.9
22:55 1023 30.21 852 25.16 2.3 36.2 63 -4 24.8
23:00 1023 30.21 852 25.16 2.2 35.9 64 -4 24.8
23:05 1023 30.21 852 25.16 2 35.7 64 -4 24.7
23:10 1023 30.21 852 25.16 1.9 35.4 65 -4 24.7
23:15 1023 30.21 852 25.16 1.7 35.1 65 -4.1 24.6
23:20 1023 30.21 852 25.16 1.6 34.9 66 -4.1 24.6
23:25 1023 30.21 853 25.19 1.5 34.6 66 -4.2 24.5
23:30 1023 30.21 853 25.19 1.4 34.5 66 -4.2 24.5
23:35 1023 30.21 853 25.19 1.2 34.2 67 -4.2 24.4
23:40 1024 30.24 853 25.19 1.1 34 67 -4.3 24.3
23:45 1024 30.24 853 25.19 1.1 34 67 -4.3 24.2
23:50 1024 30.24 853 25.19 1.3 34.3 67 -4.3 24.3
23:55 1024 30.24 853 25.19 1.1 34.1 68 -4.2 24.5
24:00 1024 30.24 853 25.19 0.8 33.5 69 -4.3 24.3